Time;durP1;ratioP1;P1;durP2;ratioP2;P2;SDS_P1;SDS_P2;PMS_P1;PMS_P2;Temp;Humidity;BMP_temperature;BMP_pressure;BME280_temperature;BME280_humidity;BME280_pressure;Samples;Min_cycle;Max_cycle;Signal;HPM_P1;HPM_P2
2022/08/20 00:00:24;;;;;;;;;;;;;;;18.21;100.00;101526.09;6517153;22;20314;-83
2022/08/20 00:02:58;;;;;;;;;;;;;;;18.21;100.00;101515.28;6516293;22;19931;-84
2022/08/20 00:05:41;;;;;;;;;;;;;;;18.23;100.00;101515.13;6543328;22;19903;-84
2022/08/20 00:08:12;;;;;;;;;;;;;;;18.26;100.00;101517.47;6515537;22;20360;-83
2022/08/20 00:10:44;;;;;;;;;;;;;;;18.27;100.00;101520.00;6516185;22;19904;-83
2022/08/20 00:13:18;;;;;;;;;;;;;;;18.27;100.00;101514.59;6543664;22;19958;-83
2022/08/20 00:15:49;;;;;;;;;;;;;;;18.27;100.00;101511.06;6515363;22;19987;-83
2022/08/20 00:18:21;;;;;;;;;;;;;;;18.23;100.00;101498.91;6516627;22;19965;-84
2022/08/20 00:20:54;;;;;;;;;;;;;;;18.21;100.00;101504.47;6543122;22;19919;-84
2022/08/20 00:23:25;;;;;;;;;;;;;;;18.22;100.00;101508.06;6542805;22;19914;-85
2022/08/20 00:25:59;;;;;;;;;;;;;;;18.21;100.00;101499.09;6516476;22;19934;-85
2022/08/20 00:28:30;;;;;;;;;;;;;;;18.20;100.00;101507.34;6515752;22;19907;-84
2022/08/20 00:31:05;;;;;;;;;;;;;;;18.22;100.00;101505.34;6543722;22;19908;-84
2022/08/20 00:33:37;;;;;;;;;;;;;;;18.21;100.00;101507.19;6542668;22;20246;-84
2022/08/20 00:36:09;;;;;;;;;;;;;;;18.23;100.00;101507.88;6515301;22;19907;-84
2022/08/20 00:38:41;;;;;;;;;;;;;;;18.25;100.00;101502.28;6515764;22;19913;-84
2022/08/20 00:41:19;;;;;;;;;;;;;;;18.24;100.00;101508.72;6516515;22;19907;-84
2022/08/20 00:44:02;;;;;;;;;;;;;;;18.25;100.00;101511.22;6516797;22;19915;-83
2022/08/20 00:46:34;;;;;;;;;;;;;;;18.24;100.00;101514.09;6516810;22;20273;-83
2022/08/20 00:49:07;;;;;;;;;;;;;;;18.25;100.00;101507.66;6543863;22;19914;-84
2022/08/20 00:51:40;;;;;;;;;;;;;;;18.25;100.00;101505.84;6516658;22;19934;-84
2022/08/20 00:54:27;;;;;;;;;;;;;;;18.25;100.00;101508.53;6543217;22;19907;-83
2022/08/20 00:57:03;;;;;;;;;;;;;;;18.24;100.00;101511.41;6516361;22;19907;-85
2022/08/20 00:59:36;;;;;;;;;;;;;;;18.23;100.00;101512.41;6543610;22;20345;-84
2022/08/20 01:02:10;;;;;;;;;;;;;;;18.23;100.00;101515.97;6543540;22;19911;-85
2022/08/20 01:04:54;;;;;;;;;;;;;;;18.22;100.00;101510.75;6543727;22;19915;-84
2022/08/20 01:07:32;;;;;;;;;;;;;;;18.22;100.00;101511.59;6517856;22;19907;-85
2022/08/20 01:10:06;;;;;;;;;;;;;;;18.20;100.00;101513.63;6544409;22;19903;-84
2022/08/20 01:12:39;;;;;;;;;;;;;;;18.24;100.00;101514.94;6518473;22;19907;-85
2022/08/20 01:15:15;;;;;;;;;;;;;;;18.22;100.00;101505.34;6519802;22;19918;-85
2022/08/20 01:17:48;;;;;;;;;;;;;;;18.21;100.00;101503.66;6544715;22;19926;-85
2022/08/20 01:20:29;;;;;;;;;;;;;;;18.19;100.00;101511.94;6519874;22;20297;-84
2022/08/20 01:23:26;;;;;;;;;;;;;;;18.17;100.00;101513.13;6520050;22;19907;-85
2022/08/20 01:26:06;;;;;;;;;;;;;;;18.16;100.00;101506.88;6544303;22;19967;-84
2022/08/20 01:28:46;;;;;;;;;;;;;;;18.15;100.00;101516.00;6517468;22;20326;-84
2022/08/20 01:31:19;;;;;;;;;;;;;;;18.14;100.00;101514.31;6543851;22;19903;-84
2022/08/20 01:33:51;;;;;;;;;;;;;;;18.14;100.00;101515.19;6516849;22;19918;-84
2022/08/20 01:36:25;;;;;;;;;;;;;;;18.14;100.00;101511.63;6543509;22;19959;-85
2022/08/20 01:38:57;;;;;;;;;;;;;;;18.14;100.00;101508.91;6516780;22;20353;-84
2022/08/20 01:41:32;;;;;;;;;;;;;;;18.13;100.00;101509.94;6516831;22;19911;-84
2022/08/20 01:44:03;;;;;;;;;;;;;;;18.10;100.00;101508.44;6543167;22;19908;-85
2022/08/20 01:46:36;;;;;;;;;;;;;;;18.08;100.00;101501.53;6517038;22;20293;-84
2022/08/20 01:49:13;;;;;;;;;;;;;;;18.06;100.00;101504.41;6517178;22;20280;-84
2022/08/20 01:51:44;;;;;;;;;;;;;;;18.05;100.00;101507.28;6542902;22;19904;-84
2022/08/20 01:54:16;;;;;;;;;;;;;;;18.02;100.00;101513.88;6543286;22;19926;-85
2022/08/20 01:56:50;;;;;;;;;;;;;;;17.98;100.00;101512.53;6516885;22;19910;-84
2022/08/20 01:59:21;;;;;;;;;;;;;;;17.95;100.00;101519.13;6543987;22;20374;-84
2022/08/20 02:01:53;;;;;;;;;;;;;;;17.94;100.00;101509.34;6543871;22;19997;-84
2022/08/20 02:04:25;;;;;;;;;;;;;;;17.91;100.00;101520.47;6515882;22;19975;-84
2022/08/20 02:06:58;;;;;;;;;;;;;;;17.88;100.00;101515.44;6514003;22;20003;-85
2022/08/20 02:09:31;;;;;;;;;;;;;;;17.88;100.00;101518.16;6543673;22;19914;-84
2022/08/20 02:12:04;;;;;;;;;;;;;;;17.93;100.00;101517.59;6542396;22;19910;-84
2022/08/20 02:14:44;;;;;;;;;;;;;;;17.93;100.00;101515.78;6542589;22;20306;-84
2022/08/20 02:17:15;;;;;;;;;;;;;;;17.93;100.00;101526.56;6515057;22;19997;-83
2022/08/20 02:19:52;;;;;;;;;;;;;;;17.95;100.00;101519.13;6541386;22;19927;-83
2022/08/20 02:22:35;;;;;;;;;;;;;;;17.96;100.00;101514.56;6514935;22;19907;-84
2022/08/20 02:25:08;;;;;;;;;;;;;;;18.01;100.00;101519.44;6516063;22;19930;-85
2022/08/20 02:27:40;;;;;;;;;;;;;;;18.04;100.00;101519.06;6516384;22;19943;-85
2022/08/20 02:30:14;;;;;;;;;;;;;;;18.04;100.00;101522.63;6543008;22;19907;-84
2022/08/20 02:32:45;;;;;;;;;;;;;;;18.04;100.00;101521.78;6542869;22;19907;-84
2022/08/20 02:35:17;;;;;;;;;;;;;;;17.99;100.00;101516.91;6542465;22;19926;-84
2022/08/20 02:37:49;;;;;;;;;;;;;;;17.99;100.00;101514.22;6516152;22;19979;-84
2022/08/20 02:40:21;;;;;;;;;;;;;;;17.93;100.00;101513.06;6515436;22;19911;-84
2022/08/20 02:42:53;;;;;;;;;;;;;;;17.88;100.00;101517.28;6515859;22;20373;-84
2022/08/20 02:45:25;;;;;;;;;;;;;;;17.89;100.00;101524.38;6543255;22;19946;-84
2022/08/20 02:47:57;;;;;;;;;;;;;;;17.87;100.00;101523.72;6542755;22;19915;-84
2022/08/20 02:50:29;;;;;;;;;;;;;;;17.87;100.00;101531.81;6542799;22;19903;-84
2022/08/20 02:53:00;;;;;;;;;;;;;;;17.88;100.00;101528.94;6543094;22;19912;-84
2022/08/20 02:55:31;;;;;;;;;;;;;;;17.86;100.00;101522.03;6515823;22;19903;-84
2022/08/20 02:58:03;;;;;;;;;;;;;;;17.85;100.00;101525.72;6516544;22;20330;-84
2022/08/20 03:00:34;;;;;;;;;;;;;;;17.84;100.00;101519.47;6542386;22;19903;-84
2022/08/20 03:03:09;;;;;;;;;;;;;;;17.82;100.00;101532.28;6542724;22;19911;-84
2022/08/20 03:05:43;;;;;;;;;;;;;;;17.83;100.00;101530.44;6542790;22;20392;-83
2022/08/20 03:08:15;;;;;;;;;;;;;;;17.82;100.00;101520.66;6544056;22;20278;-84
2022/08/20 03:10:46;;;;;;;;;;;;;;;17.81;100.00;101518.97;6542363;22;19908;-85
2022/08/20 03:13:18;;;;;;;;;;;;;;;17.79;100.00;101529.09;6543765;22;19904;-84
2022/08/20 03:15:54;;;;;;;;;;;;;;;17.76;100.00;101528.44;6516045;22;19907;-84
2022/08/20 03:18:27;;;;;;;;;;;;;;;17.73;100.00;101531.47;6515994;22;19908;-85
2022/08/20 03:20:58;;;;;;;;;;;;;;;17.71;100.00;101538.06;6516009;22;19903;-84
2022/08/20 03:23:30;;;;;;;;;;;;;;;17.69;100.00;101531.97;6515557;22;19970;-84
2022/08/20 03:26:06;;;;;;;;;;;;;;;17.67;100.00;101531.31;6516083;22;20226;-84
2022/08/20 03:28:37;;;;;;;;;;;;;;;17.62;100.00;101530.97;6543004;22;20868;-84
2022/08/20 03:31:09;;;;;;;;;;;;;;;17.61;100.00;101532.00;6542693;22;19954;-84
2022/08/20 03:33:41;;;;;;;;;;;;;;;17.64;100.00;101534.38;6516274;22;19922;-84
2022/08/20 03:36:12;;;;;;;;;;;;;;;17.59;100.00;101542.97;6518338;22;19911;-85
2022/08/20 03:38:43;;;;;;;;;;;;;;;17.55;100.00;101539.78;6515877;22;19914;-84
2022/08/20 03:41:15;;;;;;;;;;;;;;;17.47;100.00;101547.88;6515313;22;19907;-85
2022/08/20 03:43:46;;;;;;;;;;;;;;;17.46;100.00;101546.22;6543089;22;20338;-84
2022/08/20 03:46:17;;;;;;;;;;;;;;;17.47;100.00;101555.13;6542189;22;19933;-84
2022/08/20 03:48:52;;;;;;;;;;;;;;;17.41;100.00;101551.28;6543367;22;19914;-85
2022/08/20 03:51:24;;;;;;;;;;;;;;;17.39;100.00;101554.13;6542509;22;19921;-84
2022/08/20 03:53:55;;;;;;;;;;;;;;;17.34;100.00;101548.41;6543076;22;19907;-84
2022/08/20 03:56:27;;;;;;;;;;;;;;;17.28;100.00;101553.63;6515679;22;20228;-84
2022/08/20 03:59:00;;;;;;;;;;;;;;;17.29;100.00;101549.94;6515638;22;19910;-84
2022/08/20 04:01:32;;;;;;;;;;;;;;;17.27;100.00;101555.50;6542802;22;19907;-84
2022/08/20 04:04:03;;;;;;;;;;;;;;;17.24;100.00;101550.44;6515812;22;20207;-84
2022/08/20 04:06:34;;;;;;;;;;;;;;;17.24;100.00;101552.28;6542772;22;19908;-83
2022/08/20 04:09:06;;;;;;;;;;;;;;;17.23;100.00;101553.28;6541609;22;20530;-84
2022/08/20 04:11:38;;;;;;;;;;;;;;;17.20;100.00;101557.19;6515454;22;19907;-83
2022/08/20 04:14:10;;;;;;;;;;;;;;;17.19;100.00;101563.56;6542271;22;19910;-83
2022/08/20 04:16:42;;;;;;;;;;;;;;;17.22;100.00;101565.94;6544294;22;19907;-84
2022/08/20 04:19:13;;;;;;;;;;;;;;;17.20;100.00;101562.56;6543759;22;19911;-85
2022/08/20 04:21:47;;;;;;;;;;;;;;;17.16;100.00;101566.59;6517718;22;19919;-85
2022/08/20 04:24:19;;;;;;;;;;;;;;;17.09;100.00;101566.44;6539106;22;19900;-85
2022/08/20 04:26:50;;;;;;;;;;;;;;;17.03;100.00;101563.56;6572562;22;19941;-85
2022/08/20 04:29:21;;;;;;;;;;;;;;;16.98;100.00;101570.28;6571708;22;19950;-85
2022/08/20 04:31:53;;;;;;;;;;;;;;;16.95;100.00;101576.03;6545957;22;19903;-85
2022/08/20 04:34:24;;;;;;;;;;;;;;;17.02;100.00;101578.88;6538887;22;20335;-85
2022/08/20 04:36:56;;;;;;;;;;;;;;;17.02;100.00;101576.19;6530793;22;20188;-85
2022/08/20 04:39:27;;;;;;;;;;;;;;;17.05;100.00;101578.56;6557338;22;19903;-85
2022/08/20 04:41:58;;;;;;;;;;;;;;;17.05;100.00;101580.41;6527329;22;19908;-83
2022/08/20 04:44:29;;;;;;;;;;;;;;;17.06;100.00;101588.34;6524240;22;20281;-82
2022/08/20 04:47:01;;;;;;;;;;;;;;;17.08;100.00;101590.88;6521483;22;19923;-83
2022/08/20 04:49:32;;;;;;;;;;;;;;;17.08;100.00;101590.88;6516826;22;19910;-83
2022/08/20 04:52:03;;;;;;;;;;;;;;;17.07;100.00;101589.16;6543572;22;20265;-83
2022/08/20 04:54:34;;;;;;;;;;;;;;;17.07;100.00;101594.56;6544639;22;19916;-83
2022/08/20 04:57:05;;;;;;;;;;;;;;;17.02;100.00;101597.75;6517298;22;19904;-83
2022/08/20 04:59:37;;;;;;;;;;;;;;;17.01;100.00;101599.59;6544633;22;19903;-83
2022/08/20 05:02:08;;;;;;;;;;;;;;;17.01;100.00;101599.59;6543708;22;19986;-84
2022/08/20 05:04:39;;;;;;;;;;;;;;;17.03;100.00;101606.69;6545276;22;20330;-83
2022/08/20 05:07:12;;;;;;;;;;;;;;;16.96;100.00;101609.19;6518607;22;19938;-83
2022/08/20 05:09:44;;;;;;;;;;;;;;;16.96;100.00;101607.34;6516780;22;19907;-83
2022/08/20 05:12:16;;;;;;;;;;;;;;;16.96;100.00;101609.19;6544173;22;19911;-84
2022/08/20 05:14:48;;;;;;;;;;;;;;;16.95;100.00;101611.06;6517113;22;19997;-83
2022/08/20 05:17:22;;;;;;;;;;;;;;;16.93;100.00;101602.28;6516267;22;19907;-82
2022/08/20 05:19:53;;;;;;;;;;;;;;;16.86;100.00;101603.94;6542952;22;19908;-83
2022/08/20 05:22:26;;;;;;;;;;;;;;;16.85;100.00;101596.03;6543276;22;19986;-83
2022/08/20 05:24:58;;;;;;;;;;;;;;;16.80;100.00;101615.38;6542996;22;19904;-83
2022/08/20 05:27:29;;;;;;;;;;;;;;;16.77;100.00;101616.53;6514530;22;20338;-83
2022/08/20 05:30:05;;;;;;;;;;;;;;;16.78;100.00;101614.69;6542583;22;19946;-82
2022/08/20 05:32:37;;;;;;;;;;;;;;;16.87;100.00;101619.13;6543346;22;19903;-83
2022/08/20 05:35:09;;;;;;;;;;;;;;;16.89;100.00;101622.50;6543448;22;19903;-83
2022/08/20 05:37:40;;;;;;;;;;;;;;;16.93;100.00;101625.69;6542680;22;19910;-82
2022/08/20 05:40:13;;;;;;;;;;;;;;;16.92;100.00;101621.34;6516029;22;20017;-82
2022/08/20 05:42:44;;;;;;;;;;;;;;;16.94;100.00;101624.69;6543663;22;19907;-82
2022/08/20 05:45:16;;;;;;;;;;;;;;;16.96;100.00;101626.22;6543196;22;19914;-83
2022/08/20 05:47:48;;;;;;;;;;;;;;;17.01;100.00;101629.25;6515585;22;20330;-84
2022/08/20 05:50:20;;;;;;;;;;;;;;;17.05;100.00;101629.75;6515965;22;19962;-83
2022/08/20 05:52:52;;;;;;;;;;;;;;;17.10;100.00;101632.81;6543551;22;20337;-84
2022/08/20 05:55:24;;;;;;;;;;;;;;;17.13;100.00;101634.34;6540426;22;19954;-84
2022/08/20 05:57:56;;;;;;;;;;;;;;;17.12;100.00;101629.94;6514035;22;19907;-83
2022/08/20 06:00:28;;;;;;;;;;;;;;;17.21;100.00;101631.63;6513923;22;19938;-84
2022/08/20 06:05:49;;;;;;;;;;;;;;;17.43;100.00;101638.22;6540600;22;19911;-83
2022/08/20 06:08:21;;;;;;;;;;;;;;;17.47;100.00;101644.13;6541401;22;19914;-83
2022/08/20 06:10:52;;;;;;;;;;;;;;;17.45;100.00;101646.16;6541203;22;20318;-83
2022/08/20 06:13:24;;;;;;;;;;;;;;;17.39;100.00;101650.34;6513689;22;19965;-83
2022/08/20 06:15:55;;;;;;;;;;;;;;;17.35;100.00;101647.13;6514120;22;20242;-83
2022/08/20 06:18:27;;;;;;;;;;;;;;;17.32;100.00;101644.81;6514712;22;19926;-83
2022/08/20 06:20:58;;;;;;;;;;;;;;;17.33;100.00;101638.38;6515491;22;20234;-84
2022/08/20 06:23:29;;;;;;;;;;;;;;;17.40;100.00;101641.25;6541421;22;20257;-84
2022/08/20 06:26:00;;;;;;;;;;;;;;;17.54;100.00;101645.97;6514570;22;19911;-83
2022/08/20 06:28:31;;;;;;;;;;;;;;;17.68;100.00;101640.91;6542800;22;20201;-84
2022/08/20 06:31:03;;;;;;;;;;;;;;;17.72;100.00;101632.31;6515607;22;19915;-83
2022/08/20 06:33:34;;;;;;;;;;;;;;;17.76;100.00;101636.34;6513696;22;19910;-83
2022/08/20 06:36:05;;;;;;;;;;;;;;;17.84;100.00;101640.88;6513971;22;19903;-83
2022/08/20 06:38:37;;;;;;;;;;;;;;;17.88;100.00;101638.72;6541405;22;20413;-83
2022/08/20 06:41:08;;;;;;;;;;;;;;;17.93;100.00;101639.06;6540592;22;19907;-83
2022/08/20 06:43:39;;;;;;;;;;;;;;;17.96;100.00;101638.72;6540112;22;19911;-83
2022/08/20 06:46:11;;;;;;;;;;;;;;;18.00;100.00;101644.63;6513689;22;19923;-84
2022/08/20 06:48:42;;;;;;;;;;;;;;;17.90;100.00;101642.94;6542326;22;19914;-84
2022/08/20 06:51:14;;;;;;;;;;;;;;;17.89;100.00;101643.94;6541727;22;19903;-84
2022/08/20 06:53:45;;;;;;;;;;;;;;;17.90;100.00;101640.25;6542210;22;19903;-83
2022/08/20 06:56:16;;;;;;;;;;;;;;;17.89;100.00;101640.41;6515598;22;19903;-84
2022/08/20 06:58:48;;;;;;;;;;;;;;;17.92;100.00;101640.91;6542192;22;20286;-84
2022/08/20 07:01:22;;;;;;;;;;;;;;;18.08;100.00;101640.03;6541738;22;19903;-84
2022/08/20 07:03:53;;;;;;;;;;;;;;;18.14;100.00;101644.75;6515495;22;19907;-84
2022/08/20 07:06:25;;;;;;;;;;;;;;;18.16;100.00;101651.81;6514722;22;19911;-83
2022/08/20 07:08:56;;;;;;;;;;;;;;;18.25;100.00;101643.53;6514977;22;20329;-84
2022/08/20 07:11:28;;;;;;;;;;;;;;;18.33;100.00;101651.59;6514646;22;20001;-83
2022/08/20 07:14:00;;;;;;;;;;;;;;;18.46;100.00;101640.25;6513771;22;19903;-84
2022/08/20 07:16:31;;;;;;;;;;;;;;;18.71;100.00;101648.25;6542198;22;19907;-84
2022/08/20 07:19:03;;;;;;;;;;;;;;;18.80;100.00;101652.59;6518352;22;19910;-84
2022/08/20 07:21:34;;;;;;;;;;;;;;;18.76;100.00;101653.97;6516407;22;19911;-83
2022/08/20 07:24:05;;;;;;;;;;;;;;;18.79;100.00;101655.47;6542438;22;20004;-83
2022/08/20 07:26:36;;;;;;;;;;;;;;;18.90;100.00;101657.81;6544424;22;19953;-84
2022/08/20 07:29:08;;;;;;;;;;;;;;;18.83;100.00;101664.94;6516984;22;19921;-83
2022/08/20 07:34:30;;;;;;;;;;;;;;;18.98;100.00;101660.44;6542673;22;19903;-82
2022/08/20 07:37:01;;;;;;;;;;;;;;;19.14;100.00;101664.09;6542903;22;19911;-83
2022/08/20 07:39:34;;;;;;;;;;;;;;;18.99;100.00;101666.72;6543038;22;19918;-83
2022/08/20 07:42:06;;;;;;;;;;;;;;;19.16;100.00;101668.31;6542894;22;19911;-84
2022/08/20 07:44:38;;;;;;;;;;;;;;;19.18;100.00;101677.06;6542924;22;19938;-83
2022/08/20 07:47:09;;;;;;;;;;;;;;;19.26;100.00;101674.28;6516076;22;20211;-83
2022/08/20 07:49:40;;;;;;;;;;;;;;;19.33;100.00;101685.25;6540898;22;19915;-83
2022/08/20 07:52:12;;;;;;;;;;;;;;;19.57;100.00;101686.94;6542452;22;19915;-84
2022/08/20 07:54:43;;;;;;;;;;;;;;;20.10;100.00;101686.16;6542822;22;19996;-82
2022/08/20 07:57:16;;;;;;;;;;;;;;;20.67;100.00;101680.09;6516340;22;19912;-84
2022/08/20 07:59:47;;;;;;;;;;;;;;;21.48;100.00;101685.41;6514844;22;19926;-84
2022/08/20 08:02:18;;;;;;;;;;;;;;;22.40;100.00;101686.31;6543756;22;19998;-84
2022/08/20 08:04:50;;;;;;;;;;;;;;;22.87;100.00;101689.28;6517338;22;20338;-84
2022/08/20 08:07:21;;;;;;;;;;;;;;;23.00;100.00;101678.44;6515367;22;19911;-85
2022/08/20 08:09:54;;;;;;;;;;;;;;;23.39;100.00;101670.59;6513262;22;19907;-84
2022/08/20 08:12:30;;;;;;;;;;;;;;;24.23;100.00;101682.75;6517864;22;19974;-84
2022/08/20 08:15:03;;;;;;;;;;;;;;;25.26;100.00;101684.66;6516634;22;19915;-84
2022/08/20 08:17:35;;;;;;;;;;;;;;;25.84;100.00;101680.00;6514792;22;20407;-84
2022/08/20 08:20:06;;;;;;;;;;;;;;;26.54;100.00;101681.63;6513767;22;19907;-84
2022/08/20 08:22:41;;;;;;;;;;;;;;;25.92;100.00;101681.63;6541050;22;19911;-84
2022/08/20 08:25:15;;;;;;;;;;;;;;;25.02;100.00;101682.69;6513694;22;19909;-83
2022/08/20 08:27:47;;;;;;;;;;;;;;;24.67;100.00;101677.59;6540727;22;19922;-83
2022/08/20 08:30:19;;;;;;;;;;;;;;;25.66;100.00;101681.63;6540786;22;19911;-84
2022/08/20 08:35:45;;;;;;;;;;;;;;;27.65;100.00;101678.63;6540030;22;20006;-84
2022/08/20 08:38:17;;;;;;;;;;;;;;;28.59;100.00;101677.75;6513734;22;20334;-84
2022/08/20 08:40:50;;;;;;;;;;;;;;;29.17;100.00;101675.88;6514244;22;19927;-84
2022/08/20 08:43:23;;;;;;;;;;;;;;;28.84;100.00;101682.94;6513278;22;19961;-84
2022/08/20 08:46:00;;;;;;;;;;;;;;;28.40;100.00;101685.28;6513809;22;19930;-83
2022/08/20 08:48:35;;;;;;;;;;;;;;;29.12;100.00;101687.59;6512862;22;19911;-84
2022/08/20 08:51:10;;;;;;;;;;;;;;;29.96;100.00;101680.50;6512865;22;19946;-83
2022/08/20 08:53:49;;;;;;;;;;;;;;;30.95;100.00;101697.25;6512821;22;19983;-83
2022/08/20 08:56:25;;;;;;;;;;;;;;;30.84;100.00;101690.75;6540628;22;19911;-84
2022/08/20 08:58:58;;;;;;;;;;;;;;;31.52;100.00;101696.69;6539933;22;19903;-84
2022/08/20 09:01:32;;;;;;;;;;;;;;;32.46;100.00;101690.72;6541422;22;19903;-84
2022/08/20 09:04:04;;;;;;;;;;;;;;;33.31;100.00;101695.94;6514464;22;19930;-84
2022/08/20 09:06:36;;;;;;;;;;;;;;;33.54;100.00;101691.81;6542532;22;19914;-84
2022/08/20 09:09:11;;;;;;;;;;;;;;;33.87;100.00;101695.09;6515835;22;19907;-84
2022/08/20 09:11:47;;;;;;;;;;;;;;;34.23;100.00;101698.66;6516972;22;19909;-84
2022/08/20 09:14:18;;;;;;;;;;;;;;;34.84;74.22;101692.03;6516741;22;20220;-84
2022/08/20 09:16:50;;;;;;;;;;;;;;;35.64;98.68;101694.78;6543916;22;19907;-84
2022/08/20 09:19:21;;;;;;;;;;;;;;;36.27;92.01;101700.28;6517141;22;19903;-82
2022/08/20 09:21:53;;;;;;;;;;;;;;;35.70;100.00;101701.97;6529174;22;19911;-85
2022/08/20 09:24:24;;;;;;;;;;;;;;;36.09;100.00;101690.75;6515334;22;19911;-85
2022/08/20 09:26:55;;;;;;;;;;;;;;;36.32;100.00;101689.09;6513627;22;19907;-85
2022/08/20 09:29:28;;;;;;;;;;;;;;;36.45;100.00;101689.50;6542063;22;19907;-84
2022/08/20 09:32:05;;;;;;;;;;;;;;;36.87;100.00;101688.69;6514378;22;20338;-85
2022/08/20 09:34:41;;;;;;;;;;;;;;;37.64;69.47;101686.63;6541970;22;20343;-84
2022/08/20 09:37:13;;;;;;;;;;;;;;;38.30;70.68;101687.34;6515385;22;19914;-84
2022/08/20 09:39:48;;;;;;;;;;;;;;;37.19;88.67;101694.63;6542417;22;19907;-84
2022/08/20 09:42:21;;;;;;;;;;;;;;;37.72;96.23;101683.16;6540087;22;20254;-84
2022/08/20 09:44:52;;;;;;;;;;;;;;;38.97;88.34;101685.88;6542420;22;19919;-84
2022/08/20 09:47:24;;;;;;;;;;;;;;;39.93;61.87;101680.16;6541740;22;19924;-85
2022/08/20 09:49:55;;;;;;;;;;;;;;;40.30;49.48;101669.56;6513749;22;19907;-84
2022/08/20 09:52:28;;;;;;;;;;;;;;;39.34;65.38;101681.06;6514884;22;19903;-84
2022/08/20 09:55:04;;;;;;;;;;;;;;;39.48;46.90;101673.50;6513791;22;19931;-84
2022/08/20 09:57:35;;;;;;;;;;;;;;;39.02;39.06;101680.16;6541019;22;19986;-84
2022/08/20 10:00:08;;;;;;;;;;;;;;;39.27;41.48;101689.06;6515127;22;20282;-84
2022/08/20 10:02:39;;;;;;;;;;;;;;;38.63;56.34;101681.66;6541102;22;19914;-84
2022/08/20 10:05:11;;;;;;;;;;;;;;;39.32;51.10;101684.19;6540823;22;19908;-84
2022/08/20 10:07:43;;;;;;;;;;;;;;;40.30;50.10;101687.16;6540883;22;19907;-85
2022/08/20 10:10:14;;;;;;;;;;;;;;;39.98;39.04;101680.81;6514752;22;19911;-85
2022/08/20 10:12:45;;;;;;;;;;;;;;;40.13;52.50;101678.72;6540934;22;19934;-85
2022/08/20 10:15:17;;;;;;;;;;;;;;;40.97;55.50;101669.19;6542376;22;20364;-85
2022/08/20 10:17:48;;;;;;;;;;;;;;;41.51;35.57;101679.97;6542108;22;19994;-85
2022/08/20 10:20:19;;;;;;;;;;;;;;;40.49;42.97;101681.31;6514186;22;19919;-84
2022/08/20 10:22:53;;;;;;;;;;;;;;;38.00;45.25;101675.66;6542004;22;19908;-84
2022/08/20 10:25:24;;;;;;;;;;;;;;;38.17;49.24;101671.47;6515141;22;19931;-85
2022/08/20 10:27:55;;;;;;;;;;;;;;;40.04;43.14;101676.72;6541316;22;20295;-85
2022/08/20 10:30:26;;;;;;;;;;;;;;;41.04;33.76;101676.25;6514279;22;20211;-85
2022/08/20 10:32:58;;;;;;;;;;;;;;;38.98;47.12;101676.38;6513564;22;19986;-85
2022/08/20 10:35:29;;;;;;;;;;;;;;;38.67;50.22;101665.13;6514517;22;20639;-85
2022/08/20 10:38:00;;;;;;;;;;;;;;;39.63;39.54;101674.22;6541377;22;19922;-85
2022/08/20 10:40:31;;;;;;;;;;;;;;;37.76;37.88;101667.50;6514485;22;19903;-84
2022/08/20 10:43:03;;;;;;;;;;;;;;;36.36;49.68;101675.44;6514732;22;20286;-84
2022/08/20 10:45:34;;;;;;;;;;;;;;;37.80;56.63;101674.09;6515257;22;19914;-84
2022/08/20 10:48:06;;;;;;;;;;;;;;;38.38;45.15;101672.69;6541241;22;19912;-84
2022/08/20 10:50:38;;;;;;;;;;;;;;;36.88;45.97;101681.97;6514611;22;19904;-84
2022/08/20 10:53:09;;;;;;;;;;;;;;;37.35;41.46;101673.78;6541985;22;19904;-83
2022/08/20 10:55:40;;;;;;;;;;;;;;;37.00;46.63;101691.84;6514975;22;19961;-84
2022/08/20 10:58:12;;;;;;;;;;;;;;;35.06;52.99;101687.19;6541385;22;19903;-83
2022/08/20 11:00:44;;;;;;;;;;;;;;;34.27;68.25;101680.34;6542409;22;19910;-84
2022/08/20 11:03:15;;;;;;;;;;;;;;;34.02;67.19;101675.72;6554504;22;19926;-83
2022/08/20 11:05:47;;;;;;;;;;;;;;;32.82;58.69;101685.31;6571868;22;19915;-84
2022/08/20 11:08:18;;;;;;;;;;;;;;;32.07;67.70;101678.09;6544608;22;19899;-84
2022/08/20 11:10:50;;;;;;;;;;;;;;;34.20;66.43;101674.28;6571625;22;19915;-84
2022/08/20 11:13:24;;;;;;;;;;;;;;;36.37;55.78;101676.28;6540824;22;19923;-84
2022/08/20 11:16:05;;;;;;;;;;;;;;;37.90;43.95;101672.25;6528777;22;19907;-84
2022/08/20 11:18:36;;;;;;;;;;;;;;;37.32;40.91;101673.56;6551290;22;19986;-83
2022/08/20 11:21:08;;;;;;;;;;;;;;;35.74;50.36;101670.56;6522938;22;19926;-83
2022/08/20 11:23:41;;;;;;;;;;;;;;;34.67;60.25;101674.94;6543609;22;20262;-83
2022/08/20 11:26:19;;;;;;;;;;;;;;;36.74;51.48;101669.16;6515794;22;19923;-85
2022/08/20 11:28:50;;;;;;;;;;;;;;;36.52;49.60;101668.59;6542477;22;19907;-84
2022/08/20 11:31:21;;;;;;;;;;;;;;;34.92;41.57;101662.88;6541330;22;19930;-84
2022/08/20 11:33:53;;;;;;;;;;;;;;;34.67;46.05;101670.22;6514903;22;19975;-85
2022/08/20 11:36:25;;;;;;;;;;;;;;;33.90;49.09;101667.72;6516283;22;19918;-84
2022/08/20 11:38:56;;;;;;;;;;;;;;;33.02;51.60;101665.22;6517369;22;20322;-84
2022/08/20 11:41:27;;;;;;;;;;;;;;;32.79;65.97;101667.38;6544962;22;19953;-85
2022/08/20 11:43:58;;;;;;;;;;;;;;;33.40;71.41;101672.19;6544345;22;19903;-85
2022/08/20 11:46:31;;;;;;;;;;;;;;;32.90;72.27;101676.53;6516564;22;19971;-85
2022/08/20 11:49:03;;;;;;;;;;;;;;;32.79;71.79;101675.66;6543203;22;20315;-85
2022/08/20 11:51:36;;;;;;;;;;;;;;;34.34;55.14;101669.00;6543356;22;19914;-85
2022/08/20 11:54:07;;;;;;;;;;;;;;;35.11;52.28;101671.34;6541831;22;20322;-85
2022/08/20 11:56:38;;;;;;;;;;;;;;;34.20;51.37;101668.75;6541035;22;19907;-85
2022/08/20 11:59:12;;;;;;;;;;;;;;;33.29;57.17;101673.28;6515809;22;19919;-85
2022/08/20 12:01:43;;;;;;;;;;;;;;;32.54;48.54;101660.66;6514578;22;19966;-85
2022/08/20 12:04:17;;;;;;;;;;;;;;;33.85;62.17;101669.66;6514306;22;19903;-85
2022/08/20 12:06:48;;;;;;;;;;;;;;;35.57;55.58;101667.38;6540437;22;20295;-85
2022/08/20 12:09:19;;;;;;;;;;;;;;;36.06;50.26;101658.00;6514230;22;19982;-86
2022/08/20 12:11:50;;;;;;;;;;;;;;;34.96;44.18;101663.13;6515709;22;19904;-85
2022/08/20 12:14:22;;;;;;;;;;;;;;;35.88;41.58;101656.00;6542759;22;19934;-86
2022/08/20 12:16:53;;;;;;;;;;;;;;;37.47;45.94;101651.84;6514962;22;19939;-86
2022/08/20 12:19:25;;;;;;;;;;;;;;;37.74;34.01;101660.59;6542595;22;19915;-86
2022/08/20 12:21:56;;;;;;;;;;;;;;;35.94;45.78;101669.53;6542709;22;20030;-85
2022/08/20 12:24:28;;;;;;;;;;;;;;;33.94;43.99;101667.97;6541809;22;19930;-85
2022/08/20 12:27:17;;;;;;;;;;;;;;;32.95;48.93;101663.53;6542858;22;20057;-85
2022/08/20 12:29:51;;;;;;;;;;;;;;;34.33;46.02;101658.19;6514677;22;19903;-86
2022/08/20 12:32:23;;;;;;;;;;;;;;;36.68;34.45;101652.56;6515418;22;19908;-85
2022/08/20 12:34:55;;;;;;;;;;;;;;;37.86;32.07;101649.78;6514994;22;20334;-85
2022/08/20 12:37:28;;;;;;;;;;;;;;;37.34;39.79;101663.75;6544223;22;19903;-86
2022/08/20 12:40:01;;;;;;;;;;;;;;;35.08;42.86;101657.25;6516426;22;20376;-85
2022/08/20 12:42:32;;;;;;;;;;;;;;;33.70;50.03;101654.75;6543837;22;19908;-86
2022/08/20 12:45:04;;;;;;;;;;;;;;;35.13;44.65;101657.19;6517497;22;20215;-85
2022/08/20 12:47:39;;;;;;;;;;;;;;;38.08;45.06;101654.63;6516468;22;20242;-85
2022/08/20 12:50:12;;;;;;;;;;;;;;;38.25;42.48;101656.81;6544414;22;19946;-85
2022/08/20 12:52:44;;;;;;;;;;;;;;;39.28;32.60;101660.06;6518508;22;19903;-85
2022/08/20 12:55:17;;;;;;;;;;;;;;;40.94;32.48;101655.03;6544330;22;19910;-85
2022/08/20 12:57:49;;;;;;;;;;;;;;;39.73;35.68;101660.00;6517723;22;19911;-85
2022/08/20 13:00:25;;;;;;;;;;;;;;;38.51;34.37;101647.91;6516569;22;20033;-85
2022/08/20 13:02:58;;;;;;;;;;;;;;;39.35;35.66;101645.66;6517022;22;19907;-86
2022/08/20 13:05:30;;;;;;;;;;;;;;;36.60;33.29;101650.41;6544821;22;20373;-85